createdAt,value
2023-03-10T00:01:33.031Z,-1.96
2023-03-10T00:04:02.028Z,-1.97
2023-03-10T00:06:33.134Z,-1.92
2023-03-10T00:09:00.298Z,-1.90
2023-03-10T00:11:27.828Z,-1.87
2023-03-10T00:13:54.890Z,-1.85
2023-03-10T00:16:24.865Z,-1.94
2023-03-10T00:18:52.671Z,-1.89
2023-03-10T00:21:25.739Z,-1.93
2023-03-10T00:23:53.783Z,-1.94
2023-03-10T00:26:22.523Z,-1.95
2023-03-10T00:28:50.149Z,-1.95
2023-03-10T00:31:19.824Z,-2.05
2023-03-10T00:33:47.325Z,-1.93
2023-03-10T00:36:20.532Z,-1.99
2023-03-10T00:38:49.723Z,-1.89
2023-03-10T00:41:19.759Z,-1.96
2023-03-10T00:43:47.255Z,-2.06
2023-03-10T00:46:14.545Z,-2.02
2023-03-10T00:48:42.011Z,-2.14
2023-03-10T00:51:09.952Z,-2.05
2023-03-10T00:53:41.004Z,-2.04
2023-03-10T00:56:18.507Z,-2.00
2023-03-10T00:58:46.510Z,-2.08
2023-03-10T01:01:15.321Z,-2.03
2023-03-10T01:03:42.916Z,-2.06
2023-03-10T01:06:10.877Z,-2.30
2023-03-10T01:08:38.250Z,-2.07
2023-03-10T01:11:05.422Z,-2.07
2023-03-10T01:13:32.576Z,-2.08
2023-03-10T01:15:59.656Z,-2.12
2023-03-10T01:18:26.734Z,-2.17
2023-03-10T01:20:53.832Z,-2.11
2023-03-10T01:23:25.697Z,-2.15
2023-03-10T01:25:52.853Z,-2.17
2023-03-10T01:28:20.836Z,-2.23
2023-03-10T01:30:48.948Z,-2.20
2023-03-10T01:33:17.805Z,-2.20
2023-03-10T01:35:45.200Z,-2.25
2023-03-10T01:38:12.709Z,-2.69
2023-03-10T01:40:40.653Z,-2.44
2023-03-10T01:43:19.790Z,-2.42
2023-03-10T01:45:46.744Z,-2.34
2023-03-10T01:48:17.838Z,-2.36
2023-03-10T01:50:48.504Z,-2.39
2023-03-10T01:53:19.194Z,-2.41
2023-03-10T01:55:50.353Z,-2.51
2023-03-10T01:58:20.797Z,-2.47
2023-03-10T02:00:48.568Z,-2.48
2023-03-10T02:03:21.641Z,-2.53
2023-03-10T02:05:57.566Z,-2.58
2023-03-10T02:08:29.400Z,-2.52
2023-03-10T02:10:58.245Z,-2.53
2023-03-10T02:13:25.289Z,-2.48
2023-03-10T02:15:53.497Z,-2.66
2023-03-10T02:18:22.361Z,-2.53
2023-03-10T02:21:12.231Z,-2.55
2023-03-10T02:24:05.538Z,-2.55
2023-03-10T02:27:10.189Z,-2.57
2023-03-10T02:29:57.970Z,-2.65
2023-03-10T02:32:30.304Z,-2.64
2023-03-10T02:34:57.760Z,-2.63
2023-03-10T02:37:28.558Z,-2.70
2023-03-10T02:39:56.103Z,-2.65
2023-03-10T02:42:26.981Z,-3.00
2023-03-10T02:44:54.680Z,-2.66
2023-03-10T02:47:21.968Z,-2.62
2023-03-10T02:49:49.345Z,-2.70
2023-03-10T02:52:59.537Z,-2.58
2023-03-10T02:55:26.680Z,-2.65
2023-03-10T02:57:54.032Z,-2.70
2023-03-10T03:00:21.467Z,-2.80
2023-03-10T03:02:48.548Z,-2.85
2023-03-10T03:05:15.675Z,-2.98
2023-03-10T03:07:42.709Z,-2.84
2023-03-10T03:10:10.419Z,-2.84
2023-03-10T03:12:37.489Z,-2.93
2023-03-10T03:15:05.446Z,-2.89
2023-03-10T03:17:32.755Z,-2.93
2023-03-10T03:19:59.963Z,-2.96
2023-03-10T03:22:27.137Z,-3.11
2023-03-10T03:24:54.588Z,-3.13
2023-03-10T03:27:21.593Z,-3.01
2023-03-10T03:29:48.914Z,-3.10
2023-03-10T03:32:16.026Z,-3.11
2023-03-10T03:34:43.076Z,-3.27
2023-03-10T03:37:10.245Z,-3.19
2023-03-10T03:39:39.552Z,-3.22
2023-03-10T03:42:08.553Z,-3.22
2023-03-10T03:44:50.644Z,-3.25
2023-03-10T03:47:17.809Z,-3.29
2023-03-10T03:49:44.832Z,-3.48
2023-03-10T03:52:12.765Z,-3.41
2023-03-10T03:54:39.828Z,-3.33
2023-03-10T03:57:06.853Z,-3.39
2023-03-10T03:59:34.050Z,-3.35
2023-03-10T04:02:01.066Z,-3.35
2023-03-10T04:04:28.609Z,-3.41
2023-03-10T04:06:56.319Z,-3.41
2023-03-10T04:09:23.830Z,-3.40
2023-03-10T04:11:50.922Z,-3.39
2023-03-10T04:14:18.759Z,-3.39
2023-03-10T04:16:45.788Z,-3.43
2023-03-10T04:19:13.162Z,-3.39
2023-03-10T04:21:43.668Z,-3.44
2023-03-10T04:24:12.056Z,-3.44
2023-03-10T04:26:39.068Z,-3.51
2023-03-10T04:29:06.299Z,-3.50
2023-03-10T04:31:35.900Z,-3.47
2023-03-10T04:34:04.208Z,-3.51
2023-03-10T04:36:32.644Z,-3.53
2023-03-10T04:39:01.922Z,-3.46
2023-03-10T04:41:31.504Z,-3.46
2023-03-10T04:43:59.075Z,-3.37
2023-03-10T04:46:26.402Z,-3.42
2023-03-10T04:48:56.036Z,-3.47
2023-03-10T04:51:23.077Z,-3.52
2023-03-10T04:53:52.335Z,-3.49
2023-03-10T04:56:21.264Z,-3.31
2023-03-10T04:58:48.450Z,-3.22
2023-03-10T05:01:16.596Z,-3.20
2023-03-10T05:03:48.392Z,-3.22
2023-03-10T05:06:20.468Z,-3.23
2023-03-10T05:09:11.172Z,-3.18
2023-03-10T05:11:38.789Z,-3.24
2023-03-10T05:14:05.888Z,-3.28
2023-03-10T05:16:33.094Z,-3.28
2023-03-10T05:19:00.149Z,-3.25
2023-03-10T05:21:29.508Z,-3.24
2023-03-10T05:23:58.097Z,-3.20
2023-03-10T05:26:26.279Z,-3.36
2023-03-10T05:28:54.165Z,-3.24
2023-03-10T05:31:29.319Z,-3.42
2023-03-10T05:34:03.196Z,-3.33
2023-03-10T05:36:30.346Z,-3.58
2023-03-10T05:38:57.447Z,-3.32
2023-03-10T05:41:24.535Z,-3.35
2023-03-10T05:43:55.941Z,-3.46
2023-03-10T05:46:24.019Z,-3.38
2023-03-10T05:48:54.957Z,-3.31
2023-03-10T05:51:22.227Z,-3.19
2023-03-10T05:53:49.482Z,-3.15
2023-03-10T05:56:23.139Z,-3.12
2023-03-10T05:58:54.272Z,-3.03
2023-03-10T06:01:27.698Z,-3.06
2023-03-10T06:03:54.859Z,-3.10
2023-03-10T06:06:21.911Z,-3.07
2023-03-10T06:08:48.928Z,-2.99
2023-03-10T06:11:16.040Z,-2.95
2023-03-10T06:13:43.028Z,-2.87
2023-03-10T06:16:11.722Z,-2.68
2023-03-10T06:18:38.890Z,-2.72
2023-03-10T06:21:08.938Z,-2.66
2023-03-10T06:23:37.198Z,-2.49
2023-03-10T06:26:23.003Z,-2.27
2023-03-10T06:28:49.997Z,-2.12
2023-03-10T06:31:22.801Z,-2.04
2023-03-10T06:33:50.369Z,-2.01
2023-03-10T06:36:18.728Z,-1.85
2023-03-10T06:38:45.815Z,-1.84
2023-03-10T06:41:13.365Z,-1.74
2023-03-10T06:43:41.165Z,-1.69
2023-03-10T06:46:10.079Z,-1.50
2023-03-10T06:48:38.602Z,-1.43
2023-03-10T06:51:10.707Z,-1.00
2023-03-10T06:53:37.927Z,0.33
2023-03-10T06:56:12.179Z,1.90
2023-03-10T06:58:40.126Z,3.19
2023-03-10T07:01:08.334Z,4.89
2023-03-10T07:03:36.477Z,6.27
2023-03-10T07:06:03.637Z,7.17
2023-03-10T07:08:31.053Z,7.13
2023-03-10T07:10:58.138Z,7.03
2023-03-10T07:13:25.178Z,7.13
2023-03-10T07:15:52.276Z,7.22
2023-03-10T07:18:19.644Z,7.16
2023-03-10T07:20:48.246Z,7.05
2023-03-10T07:23:15.653Z,6.54
2023-03-10T07:25:42.840Z,6.27
2023-03-10T07:28:09.887Z,6.45
2023-03-10T07:30:38.821Z,6.49
2023-03-10T07:33:06.068Z,7.29
2023-03-10T07:35:35.529Z,7.96
2023-03-10T07:38:04.374Z,7.30
2023-03-10T07:40:31.566Z,6.33
2023-03-10T07:42:58.667Z,4.71
2023-03-10T07:45:27.741Z,4.08
2023-03-10T07:47:54.973Z,3.76
2023-03-10T07:50:22.763Z,4.07
2023-03-10T07:52:50.310Z,3.66
2023-03-10T07:55:18.317Z,3.21
2023-03-10T07:57:45.478Z,2.64
2023-03-10T08:00:13.343Z,2.07
2023-03-10T08:02:41.050Z,1.76
2023-03-10T08:05:09.913Z,1.39
2023-03-10T08:07:38.207Z,1.82
2023-03-10T08:10:06.972Z,1.77
2023-03-10T08:12:34.415Z,1.76
2023-03-10T08:15:01.545Z,1.98
2023-03-10T08:17:33.750Z,1.81
2023-03-10T08:20:01.367Z,1.79
2023-03-10T08:22:30.500Z,1.73
2023-03-10T08:24:59.590Z,1.71
2023-03-10T08:27:28.950Z,1.64
2023-03-10T08:29:56.452Z,1.53
2023-03-10T08:32:23.539Z,1.31
2023-03-10T08:34:50.613Z,1.03
2023-03-10T08:37:18.028Z,0.78
2023-03-10T08:39:45.016Z,0.33
2023-03-10T08:42:12.972Z,0.22
2023-03-10T08:44:40.613Z,0.12
2023-03-10T08:47:08.001Z,0.09
2023-03-10T08:49:35.598Z,0.13
2023-03-10T08:52:02.837Z,0.33
2023-03-10T08:54:32.398Z,1.03
2023-03-10T08:57:00.460Z,1.58
2023-03-10T08:59:27.661Z,1.91
2023-03-10T09:01:54.716Z,1.79
2023-03-10T09:04:21.747Z,1.58
2023-03-10T09:06:48.785Z,1.34
2023-03-10T09:09:15.891Z,1.27
2023-03-10T09:11:43.716Z,1.07
2023-03-10T09:14:12.278Z,0.73
2023-03-10T09:16:40.537Z,0.52
2023-03-10T09:19:08.299Z,0.48
2023-03-10T09:21:35.737Z,0.23
2023-03-10T09:24:03.246Z,0.23
2023-03-10T09:26:30.780Z,0.23
2023-03-10T09:28:57.802Z,-0.06
2023-03-10T09:31:28.704Z,0.15
2023-03-10T09:33:55.783Z,0.10
2023-03-10T09:36:22.991Z,0.16
2023-03-10T09:38:50.064Z,0.08
2023-03-10T09:41:28.813Z,0.07
2023-03-10T09:44:22.629Z,0.11
2023-03-10T09:47:09.879Z,-0.08
2023-03-10T09:49:46.356Z,-0.15
2023-03-10T09:52:20.059Z,-0.17
2023-03-10T09:55:14.208Z,-0.15
2023-03-10T09:57:41.737Z,-0.17
2023-03-10T10:00:21.946Z,-0.38
2023-03-10T10:02:51.611Z,-0.52
2023-03-10T10:05:26.186Z,-0.62
2023-03-10T10:07:57.289Z,-0.67
2023-03-10T10:10:27.533Z,-0.66
2023-03-10T10:12:56.481Z,-0.59
2023-03-10T10:15:26.919Z,-0.66
2023-03-10T10:18:19.633Z,-0.73
2023-03-10T10:20:59.127Z,-0.71
2023-03-10T10:23:28.985Z,-0.61
2023-03-10T10:25:57.019Z,-0.78
2023-03-10T10:28:48.250Z,-0.55
2023-03-10T10:31:22.024Z,-0.57
2023-03-10T10:34:04.132Z,-0.45
2023-03-10T10:36:36.944Z,-0.45
2023-03-10T10:39:27.882Z,-0.46
2023-03-10T10:41:55.270Z,-0.65
2023-03-10T10:44:22.391Z,-0.55
2023-03-10T10:46:57.751Z,-0.56
2023-03-10T10:49:28.054Z,-0.41
2023-03-10T10:52:04.636Z,-0.39
2023-03-10T10:54:37.963Z,-0.49
2023-03-10T10:57:18.557Z,-0.63
2023-03-10T10:59:45.919Z,-0.48
2023-03-10T11:02:34.903Z,-0.37
2023-03-10T11:05:22.633Z,-0.46
2023-03-10T11:07:50.836Z,-0.38
2023-03-10T11:10:28.187Z,-0.13
2023-03-10T11:13:18.371Z,0.52
2023-03-10T11:16:14.733Z,1.35
2023-03-10T11:19:10.550Z,2.06
2023-03-10T11:21:44.171Z,2.54
2023-03-10T11:24:31.493Z,2.78
2023-03-10T11:27:25.763Z,2.61
2023-03-10T11:30:11.145Z,2.35
2023-03-10T11:32:52.700Z,2.05
2023-03-10T11:35:47.215Z,1.81
2023-03-10T11:38:33.310Z,1.73
2023-03-10T11:41:20.341Z,1.70
2023-03-10T11:44:22.969Z,1.54
2023-03-10T11:47:12.227Z,1.49
2023-03-10T11:49:43.726Z,1.23
2023-03-10T11:52:19.177Z,1.29
2023-03-10T11:54:51.339Z,1.20
2023-03-10T11:57:24.228Z,1.14
2023-03-10T11:59:57.963Z,1.07
2023-03-10T12:02:30.019Z,0.85
2023-03-10T12:05:06.966Z,0.76
2023-03-10T12:07:37.356Z,0.61
2023-03-10T12:10:12.901Z,0.68
2023-03-10T12:12:45.513Z,0.54
2023-03-10T12:15:12.475Z,0.35
2023-03-10T12:17:42.080Z,0.30
2023-03-10T12:20:14.819Z,0.26
2023-03-10T12:22:43.486Z,0.33
2023-03-10T12:25:29.173Z,0.21
2023-03-10T12:28:22.600Z,0.34
2023-03-10T12:30:51.129Z,0.31
2023-03-10T12:33:45.598Z,0.28
2023-03-10T12:36:33.582Z,0.21
2023-03-10T12:39:26.744Z,0.14
2023-03-10T12:41:58.284Z,0.09
2023-03-10T12:44:49.500Z,0.14
2023-03-10T12:47:29.662Z,0.15
2023-03-10T12:50:04.800Z,0.19
2023-03-10T12:52:48.219Z,0.01
2023-03-10T12:55:22.120Z,0.19
2023-03-10T12:57:51.741Z,0.26
2023-03-10T13:00:49.019Z,0.32
2023-03-10T13:03:25.084Z,0.31
2023-03-10T13:06:18.748Z,0.32
2023-03-10T13:09:30.586Z,-0.03
2023-03-10T13:12:04.071Z,0.13
2023-03-10T13:14:40.691Z,0.17
2023-03-10T13:17:20.461Z,0.16
2023-03-10T13:20:00.680Z,0.11
2023-03-10T13:22:27.978Z,-0.04
2023-03-10T13:25:01.184Z,-0.30
2023-03-10T13:27:31.599Z,-0.33
2023-03-10T13:30:05.725Z,-0.35
2023-03-10T13:32:33.717Z,-0.36
2023-03-10T13:35:23.906Z,-0.45
2023-03-10T13:38:13.577Z,-0.44
2023-03-10T13:40:49.165Z,-0.54
2023-03-10T13:43:37.576Z,-0.56
2023-03-10T13:46:10.037Z,-0.65
2023-03-10T13:48:39.759Z,-0.66
2023-03-10T13:51:08.269Z,-0.69
2023-03-10T13:53:35.730Z,-0.68
2023-03-10T13:56:17.312Z,-0.95
2023-03-10T13:58:46.519Z,-0.54
2023-03-10T14:01:27.085Z,-0.61
2023-03-10T14:04:08.903Z,-0.51
2023-03-10T14:06:36.950Z,-0.45
2023-03-10T14:09:21.801Z,-0.71
2023-03-10T14:11:50.525Z,-0.47
2023-03-10T14:14:36.030Z,-0.44
2023-03-10T14:17:24.603Z,-0.54
2023-03-10T14:19:51.767Z,-0.66
2023-03-10T14:22:32.950Z,-0.68
2023-03-10T14:25:01.496Z,-0.83
2023-03-10T14:27:33.632Z,-0.98
2023-03-10T14:30:03.960Z,-1.09
2023-03-10T14:32:31.022Z,-1.11
2023-03-10T14:34:58.118Z,-1.15
2023-03-10T14:37:25.191Z,-1.16
2023-03-10T14:39:52.216Z,-1.38
2023-03-10T14:42:24.906Z,-1.37
2023-03-10T14:44:53.447Z,-1.50
2023-03-10T14:47:20.771Z,-1.64
2023-03-10T14:49:48.385Z,-1.63
2023-03-10T14:52:17.326Z,-1.71
2023-03-10T14:54:44.722Z,-1.77
2023-03-10T14:57:14.447Z,-1.74
2023-03-10T14:59:41.665Z,-1.72
2023-03-10T15:02:21.391Z,-1.83
2023-03-10T15:04:48.975Z,-1.85
2023-03-10T15:07:17.735Z,-1.82
2023-03-10T15:09:45.621Z,-1.86
2023-03-10T15:12:15.657Z,-1.84
2023-03-10T15:14:45.964Z,-1.92
2023-03-10T15:17:13.070Z,-1.99
2023-03-10T15:19:40.056Z,-1.93
2023-03-10T15:22:07.057Z,-1.97
2023-03-10T15:24:34.123Z,-1.99
2023-03-10T15:27:01.281Z,-2.32
2023-03-10T15:29:28.346Z,-2.01
2023-03-10T15:31:55.351Z,-1.99
2023-03-10T15:34:22.365Z,-2.00
2023-03-10T15:36:49.572Z,-1.97
2023-03-10T15:39:29.300Z,-2.02
2023-03-10T15:41:57.960Z,-2.35
2023-03-10T15:44:25.021Z,-2.10
2023-03-10T15:46:55.064Z,-2.17
2023-03-10T15:49:22.285Z,-2.24
2023-03-10T15:51:49.357Z,-2.33
2023-03-10T15:54:16.461Z,-2.42
2023-03-10T15:56:43.538Z,-2.50
2023-03-10T15:59:10.848Z,-2.49
2023-03-10T16:01:37.990Z,-2.48
2023-03-10T16:04:06.131Z,-2.51
2023-03-10T16:06:34.870Z,-2.54
2023-03-10T16:09:02.278Z,-2.85
2023-03-10T16:11:29.410Z,-2.49
2023-03-10T16:13:56.725Z,-2.46
2023-03-10T16:16:23.893Z,-2.43
2023-03-10T16:18:52.396Z,-2.43
2023-03-10T16:21:20.870Z,-2.50
2023-03-10T16:23:48.271Z,-2.57
2023-03-10T16:26:21.404Z,-2.70
2023-03-10T16:28:53.852Z,-2.66
2023-03-10T16:31:23.259Z,-2.65
2023-03-10T16:33:51.675Z,-2.62
2023-03-10T16:36:21.862Z,-2.58
2023-03-10T16:38:53.830Z,-2.52
2023-03-10T16:41:22.007Z,-2.55
2023-03-10T16:43:49.330Z,-2.51
2023-03-10T16:46:25.542Z,-2.72
2023-03-10T16:48:54.603Z,-2.63
2023-03-10T16:51:25.955Z,-2.72
2023-03-10T16:53:55.580Z,-2.72
2023-03-10T16:56:25.215Z,-2.78
2023-03-10T16:58:53.452Z,-2.79
2023-03-10T17:01:20.683Z,-2.81
2023-03-10T17:03:48.995Z,-2.81
2023-03-10T17:06:20.280Z,-2.79
2023-03-10T17:08:47.259Z,-2.80
2023-03-10T17:11:23.231Z,-2.69
2023-03-10T17:13:53.692Z,-2.70
2023-03-10T17:16:23.654Z,-2.80
2023-03-10T17:18:52.608Z,-3.19
2023-03-10T17:21:24.109Z,-2.94
2023-03-10T17:23:51.798Z,-2.95
2023-03-10T17:26:19.737Z,-2.99
2023-03-10T17:28:49.077Z,-3.06
2023-03-10T17:31:23.695Z,-3.14
2023-03-10T17:33:50.868Z,-3.16
2023-03-10T17:36:19.023Z,-3.11
2023-03-10T17:38:46.244Z,-3.30
2023-03-10T17:41:15.876Z,-3.13
2023-03-10T17:43:44.037Z,-3.14
2023-03-10T17:46:19.870Z,-4.04
2023-03-10T17:48:48.239Z,-3.12
2023-03-10T17:51:23.851Z,-3.21
2023-03-10T17:53:52.087Z,-3.24
2023-03-10T17:56:19.843Z,-3.21
2023-03-10T17:58:46.928Z,-3.23
2023-03-10T18:01:17.019Z,-3.26
2023-03-10T18:03:46.338Z,-3.66
2023-03-10T18:06:17.251Z,-3.31
2023-03-10T18:08:44.559Z,-3.24
2023-03-10T18:11:12.130Z,-3.45
2023-03-10T18:13:39.800Z,-3.16
2023-03-10T18:16:14.145Z,-3.10
2023-03-10T18:18:41.214Z,-3.08
2023-03-10T18:21:12.703Z,-3.19
2023-03-10T18:23:39.982Z,-2.99
2023-03-10T18:26:12.312Z,-2.98
2023-03-10T18:28:40.341Z,-3.10
2023-03-10T18:31:16.206Z,-3.06
2023-03-10T18:33:43.796Z,-3.08
2023-03-10T18:36:13.770Z,-3.13
2023-03-10T18:38:41.370Z,-3.01
2023-03-10T18:41:08.467Z,-3.02
2023-03-10T18:43:35.877Z,-3.05
2023-03-10T18:46:03.499Z,-3.18
2023-03-10T18:48:30.764Z,-3.12
2023-03-10T18:50:59.508Z,-3.14
2023-03-10T18:53:27.584Z,-3.13
2023-03-10T18:55:54.951Z,-3.12
2023-03-10T18:58:22.323Z,-3.26
2023-03-10T19:00:49.753Z,-3.28
2023-03-10T19:03:17.739Z,-3.18
2023-03-10T19:05:45.030Z,-3.30
2023-03-10T19:08:12.602Z,-3.33
2023-03-10T19:10:40.031Z,-3.22
2023-03-10T19:13:08.049Z,-3.23
2023-03-10T19:15:37.494Z,-3.17
2023-03-10T19:18:04.877Z,-3.15
2023-03-10T19:20:31.864Z,-3.21
2023-03-10T19:22:58.850Z,-3.21
2023-03-10T19:25:25.906Z,-3.27
2023-03-10T19:27:52.935Z,-3.30
2023-03-10T19:30:20.606Z,-3.35
2023-03-10T19:32:48.762Z,-3.24
2023-03-10T19:35:16.780Z,-3.32
2023-03-10T19:37:43.853Z,-3.20
2023-03-10T19:40:17.519Z,-3.21
2023-03-10T19:42:45.527Z,-3.32
2023-03-10T19:45:17.615Z,-3.24
2023-03-10T19:47:45.100Z,-3.38
2023-03-10T19:50:15.296Z,-3.32
2023-03-10T19:52:47.351Z,-3.36
2023-03-10T19:55:19.765Z,-3.28
2023-03-10T19:57:48.780Z,-3.22
2023-03-10T20:00:18.972Z,-3.18
2023-03-10T20:02:46.548Z,-3.17
2023-03-10T20:05:15.621Z,-3.21
2023-03-10T20:07:44.688Z,-3.10
2023-03-10T20:10:12.135Z,-3.10
2023-03-10T20:12:39.924Z,-3.11
2023-03-10T20:15:07.459Z,-3.10
2023-03-10T20:17:34.539Z,-3.12
2023-03-10T20:20:03.806Z,-3.51
2023-03-10T20:22:30.966Z,-3.26
2023-03-10T20:24:58.205Z,-3.60
2023-03-10T20:27:25.529Z,-3.25
2023-03-10T20:29:52.549Z,-3.46
2023-03-10T20:32:19.724Z,-3.21
2023-03-10T20:34:46.761Z,-3.19
2023-03-10T20:37:13.816Z,-3.18
2023-03-10T20:39:40.841Z,-3.29
2023-03-10T20:42:08.182Z,-3.31
2023-03-10T20:44:36.296Z,-3.02
2023-03-10T20:47:03.515Z,-2.96
2023-03-10T20:49:30.548Z,-3.04
2023-03-10T20:51:57.562Z,-2.97
2023-03-10T20:54:24.606Z,-2.82
2023-03-10T20:56:51.789Z,-2.82
2023-03-10T20:59:18.807Z,-2.87
2023-03-10T21:01:45.835Z,-2.77
2023-03-10T21:04:12.916Z,-2.81
2023-03-10T21:06:40.086Z,-2.98
2023-03-10T21:09:07.446Z,-2.72
2023-03-10T21:11:35.265Z,-2.79
2023-03-10T21:14:02.390Z,-2.77
2023-03-10T21:16:29.726Z,-3.06
2023-03-10T21:18:57.259Z,-2.84
2023-03-10T21:21:24.418Z,-2.86
2023-03-10T21:23:51.504Z,-2.83
2023-03-10T21:26:21.305Z,-2.82
2023-03-10T21:28:48.687Z,-2.80
2023-03-10T21:31:16.052Z,-2.79
2023-03-10T21:33:43.334Z,-2.70
2023-03-10T21:36:16.415Z,-2.84
2023-03-10T21:38:43.778Z,-2.65
2023-03-10T21:41:14.339Z,-2.71
2023-03-10T21:43:41.357Z,-2.69
2023-03-10T21:46:08.419Z,-2.71
2023-03-10T21:48:35.451Z,-2.66
2023-03-10T21:51:02.456Z,-2.64
2023-03-10T21:53:29.943Z,-2.61
2023-03-10T21:55:57.782Z,-2.60
2023-03-10T21:58:25.122Z,-2.78
2023-03-10T22:00:55.017Z,-2.62
2023-03-10T22:03:23.168Z,-3.01
2023-03-10T22:05:50.652Z,-2.66
2023-03-10T22:08:17.763Z,-2.73
2023-03-10T22:10:45.713Z,-2.76
2023-03-10T22:13:12.810Z,-2.81
2023-03-10T22:15:40.158Z,-2.92
2023-03-10T22:18:07.302Z,-3.38
2023-03-10T22:20:34.539Z,-3.06
2023-03-10T22:23:01.657Z,-2.93
2023-03-10T22:25:28.790Z,-2.93
2023-03-10T22:27:56.599Z,-2.82
2023-03-10T22:30:25.851Z,-2.80
2023-03-10T22:32:53.470Z,-2.87
2023-03-10T22:35:23.238Z,-2.69
2023-03-10T22:37:53.536Z,-2.80
2023-03-10T22:40:23.028Z,-2.79
2023-03-10T22:42:50.128Z,-2.87
2023-03-10T22:45:24.784Z,-2.79
2023-03-10T22:47:57.280Z,-2.81
2023-03-10T22:50:30.535Z,-2.92
2023-03-10T22:52:59.634Z,-2.85
2023-03-10T22:55:27.267Z,-3.49
2023-03-10T22:57:56.602Z,-3.01
2023-03-10T23:00:23.847Z,-3.14
2023-03-10T23:02:52.423Z,-3.00
2023-03-10T23:05:20.575Z,-3.01
2023-03-10T23:07:48.272Z,-3.00
2023-03-10T23:10:19.267Z,-3.02
2023-03-10T23:12:46.380Z,-3.06
2023-03-10T23:15:26.220Z,-2.89
2023-03-10T23:17:55.130Z,-2.86
2023-03-10T23:20:27.394Z,-3.00
2023-03-10T23:22:57.053Z,-2.80
2023-03-10T23:25:30.811Z,-2.81
2023-03-10T23:27:58.614Z,-2.81
2023-03-10T23:30:26.103Z,-2.78
2023-03-10T23:32:53.835Z,-2.71
2023-03-10T23:35:24.678Z,-2.88
2023-03-10T23:37:52.054Z,-3.00
2023-03-10T23:40:21.161Z,-2.80
2023-03-10T23:42:48.527Z,-2.77
2023-03-10T23:45:18.689Z,-3.05
2023-03-10T23:47:46.422Z,-3.06
2023-03-10T23:50:23.616Z,-2.95
2023-03-10T23:52:51.041Z,-2.98
2023-03-10T23:55:21.862Z,-2.93
2023-03-10T23:57:49.711Z,-3.02
